createdAt,value
2022-08-03T00:00:30.893Z,7.35
2022-08-03T00:02:58.792Z,8.27
2022-08-03T00:05:25.309Z,7.93
2022-08-03T00:07:52.805Z,8.75
2022-08-03T00:10:20.769Z,8.37
2022-08-03T00:12:48.500Z,10.93
2022-08-03T00:15:18.511Z,6.75
2022-08-03T00:17:52.916Z,9.93
2022-08-03T00:20:23.943Z,6.38
2022-08-03T00:22:57.309Z,9.80
2022-08-03T00:25:27.309Z,9.07
2022-08-03T00:27:54.264Z,9.00
2022-08-03T00:30:22.558Z,9.65
2022-08-03T00:32:54.795Z,8.73
2022-08-03T00:35:36.979Z,9.47
2022-08-03T00:38:13.378Z,8.80
2022-08-03T00:40:40.008Z,6.30
2022-08-03T00:43:08.882Z,14.85
2022-08-03T00:45:38.532Z,8.90
2022-08-03T00:48:29.776Z,6.90
2022-08-03T00:51:05.072Z,8.15
2022-08-03T00:53:32.764Z,8.60
2022-08-03T00:56:00.312Z,10.95
2022-08-03T00:58:29.625Z,11.13
2022-08-03T01:00:59.915Z,7.70
2022-08-03T01:03:33.376Z,7.70
2022-08-03T01:06:21.198Z,8.90
2022-08-03T01:09:27.178Z,5.38
2022-08-03T01:12:08.519Z,9.60
2022-08-03T01:15:04.397Z,6.77
2022-08-03T01:17:44.563Z,9.23
2022-08-03T01:20:15.751Z,6.72
2022-08-03T01:23:21.077Z,7.35
2022-08-03T01:26:06.470Z,12.50
2022-08-03T01:29:05.392Z,10.70
2022-08-03T01:33:02.687Z,4.30
2022-08-03T01:34:32.687Z,11.40
2022-08-03T01:37:00.847Z,6.85
2022-08-03T01:39:29.546Z,11.05
2022-08-03T01:41:59.838Z,8.20
2022-08-03T01:44:30.945Z,8.30
2022-08-03T01:47:00.740Z,7.30
2022-08-03T01:49:28.902Z,11.95
2022-08-03T01:52:04.356Z,5.97
2022-08-03T01:54:36.993Z,5.70
2022-08-03T01:57:07.636Z,8.05
2022-08-03T01:59:36.578Z,9.30
2022-08-03T02:02:31.976Z,7.03
2022-08-03T02:04:59.133Z,6.68
2022-08-03T02:07:26.198Z,10.17
2022-08-03T02:09:53.748Z,9.50
2022-08-03T02:12:27.815Z,14.65
2022-08-03T02:14:55.588Z,8.65
2022-08-03T02:17:39.466Z,8.43
2022-08-03T02:20:08.856Z,7.77
2022-08-03T02:22:40.201Z,7.07
2022-08-03T02:25:11.399Z,6.00
2022-08-03T02:27:44.036Z,11.43
2022-08-03T02:30:18.030Z,6.45
2022-08-03T02:32:51.477Z,9.27
2022-08-03T02:35:20.097Z,8.05
2022-08-03T02:37:54.141Z,7.53
2022-08-03T02:40:21.698Z,10.27
2022-08-03T02:42:50.313Z,7.70
2022-08-03T02:45:17.108Z,8.30
2022-08-03T02:47:54.505Z,7.80
2022-08-03T02:50:24.101Z,10.50
2022-08-03T02:52:51.394Z,7.55
2022-08-03T02:55:21.937Z,6.32
2022-08-03T02:57:48.887Z,10.90
2022-08-03T03:00:28.013Z,7.85
2022-08-03T03:03:03.432Z,9.43
2022-08-03T03:05:53.267Z,10.65
2022-08-03T03:08:20.690Z,10.90
2022-08-03T03:10:55.536Z,5.60
2022-08-03T03:13:22.733Z,10.00
2022-08-03T03:16:03.668Z,6.60
2022-08-03T03:18:34.094Z,7.60
2022-08-03T03:21:05.618Z,10.38
2022-08-03T03:23:36.024Z,10.20
2022-08-03T03:26:03.826Z,6.35
2022-08-03T03:28:31.065Z,8.68
2022-08-03T03:30:58.871Z,4.93
2022-08-03T03:33:27.209Z,9.38
2022-08-03T03:35:56.824Z,6.73
2022-08-03T03:38:27.565Z,8.82
2022-08-03T03:40:55.027Z,10.82
2022-08-03T03:43:24.592Z,9.85
2022-08-03T03:45:53.031Z,9.25
2022-08-03T03:48:24.572Z,6.60
2022-08-03T03:50:51.355Z,9.27
2022-08-03T03:53:17.942Z,10.07
2022-08-03T03:55:58.984Z,10.98
2022-08-03T03:58:31.494Z,9.07
2022-08-03T04:01:01.386Z,11.30
2022-08-03T04:03:28.120Z,8.25
2022-08-03T04:06:13.424Z,10.80
2022-08-03T04:08:59.034Z,12.77
2022-08-03T04:11:47.296Z,7.72
2022-08-03T04:14:20.278Z,13.47
2022-08-03T04:16:50.400Z,9.63
2022-08-03T04:19:52.961Z,18.63
2022-08-03T04:22:26.801Z,11.27
2022-08-03T04:25:00.323Z,9.68
2022-08-03T04:27:30.232Z,8.00
2022-08-03T04:29:58.385Z,13.90
2022-08-03T04:32:29.038Z,13.05
2022-08-03T04:34:56.457Z,22.73
2022-08-03T04:37:43.155Z,13.68
2022-08-03T04:40:22.839Z,9.03
2022-08-03T04:42:50.081Z,7.72
2022-08-03T04:45:18.186Z,8.90
2022-08-03T04:47:45.481Z,10.50
2022-08-03T04:50:17.048Z,11.85
2022-08-03T04:52:47.764Z,9.80
2022-08-03T04:55:28.707Z,14.18
2022-08-03T04:57:55.947Z,26.48
2022-08-03T05:00:25.870Z,12.38
2022-08-03T05:02:54.850Z,11.27
2022-08-03T05:05:25.764Z,11.40
2022-08-03T05:08:11.241Z,10.65
2022-08-03T05:10:39.318Z,10.10
2022-08-03T05:13:05.899Z,11.23
2022-08-03T05:15:33.650Z,13.43
2022-08-03T05:18:13.982Z,14.60
2022-08-03T05:20:41.334Z,15.65
2022-08-03T05:23:08.675Z,16.52
2022-08-03T05:25:35.280Z,14.65
2022-08-03T05:28:02.607Z,8.55
2022-08-03T05:30:34.107Z,12.03
2022-08-03T05:33:03.974Z,14.98
2022-08-03T05:35:56.016Z,15.70
2022-08-03T05:38:28.025Z,13.75
2022-08-03T05:40:57.007Z,10.15
2022-08-03T05:43:43.183Z,6.77
2022-08-03T05:46:12.483Z,14.95
2022-08-03T05:48:39.977Z,12.68
2022-08-03T05:51:07.977Z,13.35
2022-08-03T05:53:35.075Z,11.82
2022-08-03T05:56:03.674Z,12.20
2022-08-03T05:58:40.053Z,14.88
2022-08-03T06:01:06.666Z,12.27
2022-08-03T06:03:33.252Z,10.13
2022-08-03T06:06:00.775Z,15.85
2022-08-03T06:08:27.392Z,10.57
2022-08-03T06:10:53.905Z,14.02
2022-08-03T06:13:20.449Z,11.18
2022-08-03T06:15:46.949Z,14.23
2022-08-03T06:18:13.481Z,12.20
2022-08-03T06:20:40.100Z,16.07
2022-08-03T06:23:06.639Z,11.15
2022-08-03T06:25:34.025Z,12.38
2022-08-03T06:28:02.982Z,10.43
2022-08-03T06:30:29.481Z,13.98
2022-08-03T06:32:56.213Z,12.23
2022-08-03T06:35:22.911Z,10.88
2022-08-03T06:37:51.912Z,15.70
2022-08-03T06:40:31.459Z,12.18
2022-08-03T06:42:59.539Z,17.98
2022-08-03T06:45:26.064Z,17.77
2022-08-03T06:48:09.933Z,18.75
2022-08-03T06:50:38.457Z,17.25
2022-08-03T06:53:05.683Z,20.58
2022-08-03T06:55:32.503Z,27.20
2022-08-03T06:58:00.095Z,19.30
2022-08-03T07:00:30.895Z,17.23
2022-08-03T07:02:58.432Z,18.52
2022-08-03T07:05:25.298Z,17.77
2022-08-03T07:07:56.886Z,17.83
2022-08-03T07:10:23.748Z,15.93
2022-08-03T07:12:52.783Z,14.18
2022-08-03T07:15:54.413Z,15.80
2022-08-03T07:18:10.090Z,16.67
2022-08-03T07:20:36.729Z,16.35
2022-08-03T07:23:03.278Z,19.63
2022-08-03T07:25:29.784Z,16.48
2022-08-03T07:27:56.372Z,15.27
2022-08-03T07:30:23.209Z,15.23
2022-08-03T07:32:50.787Z,11.98
2022-08-03T07:35:24.730Z,13.90
2022-08-03T07:37:54.403Z,18.30
2022-08-03T07:40:22.045Z,14.85
2022-08-03T07:42:48.687Z,12.13
2022-08-03T07:45:24.880Z,13.20
2022-08-03T07:47:53.723Z,16.33
2022-08-03T07:50:20.698Z,16.30
2022-08-03T07:52:50.702Z,11.68
2022-08-03T07:55:22.745Z,11.25
2022-08-03T07:58:07.638Z,12.20
2022-08-03T08:00:34.222Z,11.30
2022-08-03T08:03:00.974Z,13.82
2022-08-03T08:05:28.186Z,11.80
2022-08-03T08:07:54.982Z,12.57
2022-08-03T08:10:22.926Z,11.98
2022-08-03T08:12:49.944Z,10.90
2022-08-03T08:15:16.508Z,13.30
2022-08-03T08:17:44.881Z,15.50
2022-08-03T08:20:15.369Z,12.13
2022-08-03T08:22:45.539Z,13.55
2022-08-03T08:25:16.241Z,13.70
2022-08-03T08:28:29.416Z,14.77
2022-08-03T08:30:34.700Z,15.40
2022-08-03T08:33:01.746Z,9.23
2022-08-03T08:35:28.271Z,9.45
2022-08-03T08:37:54.834Z,9.80
2022-08-03T08:40:22.376Z,11.13
2022-08-03T08:42:58.555Z,8.35
2022-08-03T08:45:26.167Z,6.90
2022-08-03T08:47:58.125Z,9.95
2022-08-03T08:50:27.793Z,8.40
2022-08-03T08:52:55.228Z,8.45
2022-08-03T08:55:23.470Z,11.45
2022-08-03T08:57:52.729Z,9.90
2022-08-03T09:00:19.359Z,11.35
2022-08-03T09:02:46.546Z,8.77
2022-08-03T09:05:17.415Z,9.85
2022-08-03T09:07:44.923Z,8.93
2022-08-03T09:10:13.824Z,11.52
2022-08-03T09:12:45.978Z,6.60
2022-08-03T09:15:32.364Z,7.57
2022-08-03T09:18:01.502Z,3.72
2022-08-03T09:20:30.557Z,5.38
2022-08-03T09:23:51.455Z,5.57
2022-08-03T09:25:58.495Z,8.98
2022-08-03T09:28:58.154Z,5.17
2022-08-03T09:31:55.047Z,9.38
2022-08-03T09:34:25.405Z,10.65
2022-08-03T09:36:53.930Z,9.90
2022-08-03T09:39:41.446Z,5.28
2022-08-03T09:42:18.703Z,6.27
2022-08-03T09:44:51.365Z,6.00
2022-08-03T09:47:36.441Z,6.07
2022-08-03T09:50:06.685Z,7.95
2022-08-03T09:52:52.428Z,8.60
2022-08-03T09:56:36.231Z,4.57
2022-08-03T09:58:10.514Z,5.28
2022-08-03T10:01:05.422Z,4.45
2022-08-03T10:03:35.081Z,5.22
2022-08-03T10:06:22.236Z,10.88
2022-08-03T10:09:15.992Z,6.53
2022-08-03T10:11:44.474Z,6.07
2022-08-03T10:14:18.889Z,7.18
2022-08-03T10:16:47.295Z,5.82
2022-08-03T10:19:15.184Z,6.38
2022-08-03T10:22:08.808Z,5.17
2022-08-03T10:24:36.499Z,5.47
2022-08-03T10:27:08.079Z,4.57
2022-08-03T10:29:38.918Z,7.95
2022-08-03T10:32:19.152Z,4.85
2022-08-03T10:34:47.151Z,4.83
2022-08-03T10:37:15.460Z,6.47
2022-08-03T10:39:53.533Z,5.90
2022-08-03T10:42:28.770Z,6.43
2022-08-03T10:45:23.938Z,5.28
2022-08-03T10:47:51.733Z,4.07
2022-08-03T10:50:19.031Z,6.55
2022-08-03T10:53:06.695Z,6.80
2022-08-03T10:55:57.286Z,4.25
2022-08-03T10:58:37.437Z,4.82
2022-08-03T11:01:58.799Z,5.27
2022-08-03T11:04:27.250Z,7.78
2022-08-03T11:07:18.712Z,5.47
2022-08-03T11:09:49.996Z,6.13
2022-08-03T11:12:30.101Z,3.30
2022-08-03T11:14:59.615Z,6.97
2022-08-03T11:17:26.103Z,3.78
2022-08-03T11:19:56.648Z,4.05
2022-08-03T11:22:25.151Z,5.97
2022-08-03T11:24:53.921Z,6.50
2022-08-03T11:27:23.920Z,5.90
2022-08-03T11:30:19.625Z,5.90
2022-08-03T11:32:50.281Z,6.20
2022-08-03T11:35:30.234Z,7.03
2022-08-03T11:38:07.141Z,12.23
2022-08-03T11:40:42.835Z,6.10
2022-08-03T11:43:34.253Z,6.50
2022-08-03T11:46:28.437Z,9.45
2022-08-03T11:49:09.486Z,5.47
2022-08-03T11:51:37.914Z,6.65
2022-08-03T11:54:06.263Z,8.20
2022-08-03T11:56:49.411Z,4.72
2022-08-03T11:59:21.544Z,5.72
2022-08-03T12:01:49.641Z,5.63
2022-08-03T12:04:16.479Z,5.47
2022-08-03T12:07:01.098Z,6.73
2022-08-03T12:09:27.693Z,5.70
2022-08-03T12:11:59.921Z,6.85
2022-08-03T12:14:50.296Z,6.28
2022-08-03T12:17:15.779Z,4.75
2022-08-03T12:19:45.622Z,7.80
2022-08-03T12:22:12.178Z,5.50
2022-08-03T12:24:42.835Z,6.95
2022-08-03T12:27:09.454Z,4.88
2022-08-03T12:29:36.015Z,5.93
2022-08-03T12:32:02.533Z,5.27
2022-08-03T12:34:48.660Z,4.18
2022-08-03T12:37:22.689Z,6.40
2022-08-03T12:40:02.648Z,5.50
2022-08-03T12:42:36.855Z,7.47
2022-08-03T12:45:24.246Z,4.10
2022-08-03T12:48:02.828Z,4.32
2022-08-03T12:50:34.637Z,4.03
2022-08-03T12:53:03.158Z,4.90
2022-08-03T12:55:57.709Z,4.45
2022-08-03T12:58:35.294Z,6.97
2022-08-03T13:01:09.940Z,4.68
2022-08-03T13:03:45.697Z,6.65
2022-08-03T13:06:20.026Z,4.78
2022-08-03T13:08:48.259Z,6.88
2022-08-03T13:11:57.331Z,5.17
2022-08-03T13:14:19.717Z,6.63
2022-08-03T13:16:47.126Z,5.70
2022-08-03T13:19:15.447Z,5.07
2022-08-03T13:21:53.834Z,4.90
2022-08-03T13:24:30.479Z,5.73
2022-08-03T13:26:58.267Z,6.30
2022-08-03T13:29:24.791Z,6.57
2022-08-03T13:31:51.618Z,5.65
2022-08-03T13:34:22.917Z,6.60
2022-08-03T13:37:08.537Z,4.90
2022-08-03T13:39:59.801Z,9.10
2022-08-03T13:42:22.806Z,4.53
2022-08-03T13:44:49.423Z,5.32
2022-08-03T13:47:16.185Z,5.15
2022-08-03T13:49:42.898Z,4.27
2022-08-03T13:52:26.160Z,4.95
2022-08-03T13:54:52.688Z,9.05
2022-08-03T13:58:05.897Z,5.57
2022-08-03T14:00:06.807Z,4.50
2022-08-03T14:02:33.331Z,3.60
2022-08-03T14:04:59.955Z,4.57
2022-08-03T14:07:26.463Z,3.70
2022-08-03T14:09:52.942Z,4.35
2022-08-03T14:12:19.410Z,3.88
2022-08-03T14:14:45.933Z,6.80
2022-08-03T14:17:12.423Z,4.55
2022-08-03T14:19:52.663Z,5.13
2022-08-03T14:22:20.335Z,5.20
2022-08-03T14:24:46.873Z,6.15
2022-08-03T14:27:13.359Z,5.37
2022-08-03T14:29:40.411Z,7.00
2022-08-03T14:32:11.399Z,4.32
2022-08-03T14:34:39.590Z,6.32
2022-08-03T14:37:06.143Z,4.72
2022-08-03T14:42:20.458Z,5.00
2022-08-03T14:44:47.432Z,5.53
2022-08-03T14:47:14.579Z,4.20
2022-08-03T14:50:38.499Z,11.48
2022-08-03T14:52:27.893Z,6.03
2022-08-03T14:54:54.407Z,5.97
2022-08-03T14:57:21.062Z,5.30
2022-08-03T14:59:55.798Z,5.30
2022-08-03T15:02:24.534Z,8.48
2022-08-03T15:04:51.452Z,6.97
2022-08-03T15:07:18.367Z,5.25
2022-08-03T15:09:45.125Z,8.27
2022-08-03T15:12:11.659Z,6.95
2022-08-03T15:14:38.987Z,5.07
2022-08-03T15:17:05.736Z,5.80
2022-08-03T15:20:00.882Z,4.90
2022-08-03T15:22:20.776Z,6.85
2022-08-03T15:24:52.092Z,4.95
2022-08-03T15:27:19.064Z,5.72
2022-08-03T15:30:05.104Z,4.80
2022-08-03T15:32:35.409Z,5.68
2022-08-03T15:35:01.992Z,4.53
2022-08-03T15:37:28.603Z,4.22
2022-08-03T15:39:59.009Z,6.03
2022-08-03T15:42:30.721Z,6.23
2022-08-03T15:44:57.307Z,6.82
2022-08-03T15:47:24.321Z,4.70
2022-08-03T15:49:50.942Z,5.05
2022-08-03T15:52:17.408Z,4.20
2022-08-03T15:54:44.025Z,5.77
2022-08-03T15:57:10.604Z,5.07
2022-08-03T15:59:37.118Z,5.55
2022-08-03T16:02:03.788Z,5.82
2022-08-03T16:04:30.420Z,4.53
2022-08-03T16:06:57.079Z,5.83
2022-08-03T16:09:43.374Z,7.25
2022-08-03T16:12:15.741Z,8.10
2022-08-03T16:14:52.937Z,4.97
2022-08-03T16:17:20.902Z,5.88
2022-08-03T16:19:47.620Z,4.47
2022-08-03T16:22:14.512Z,9.80
2022-08-03T16:24:41.306Z,5.25
2022-08-03T16:27:17.455Z,6.03
2022-08-03T16:29:54.620Z,7.68
2022-08-03T16:32:21.151Z,5.80
2022-08-03T16:34:48.246Z,7.70
2022-08-03T16:37:37.622Z,6.45
2022-08-03T16:40:02.247Z,3.85
2022-08-03T16:42:31.255Z,3.75
2022-08-03T16:44:57.820Z,5.97
2022-08-03T16:47:24.383Z,6.35
2022-08-03T16:49:55.432Z,4.80
2022-08-03T16:52:23.978Z,4.60
2022-08-03T16:54:53.741Z,5.32
2022-08-03T16:57:58.189Z,4.90
2022-08-03T17:00:33.971Z,5.13
2022-08-03T17:03:00.986Z,6.40
2022-08-03T17:05:43.560Z,6.75
2022-08-03T17:08:12.693Z,5.75
2022-08-03T17:10:45.219Z,8.73
2022-08-03T17:13:22.470Z,4.72
2022-08-03T17:16:01.049Z,5.43
2022-08-03T17:18:32.420Z,5.60
2022-08-03T17:21:03.431Z,6.80
2022-08-03T17:23:39.112Z,8.53
2022-08-03T17:26:20.199Z,6.05
2022-08-03T17:28:56.503Z,7.47
2022-08-03T17:31:31.463Z,5.13
2022-08-03T17:34:00.689Z,8.63
2022-08-03T17:36:47.501Z,7.90
2022-08-03T17:39:16.486Z,8.98
2022-08-03T17:41:50.206Z,8.60
2022-08-03T17:44:28.919Z,13.18
2022-08-03T17:47:01.600Z,8.35
2022-08-03T17:49:28.096Z,10.10
2022-08-03T17:52:04.662Z,9.30
2022-08-03T17:55:57.042Z,5.90
2022-08-03T17:58:02.194Z,11.85
2022-08-03T18:00:48.047Z,13.75
2022-08-03T18:03:21.256Z,9.27
2022-08-03T18:06:10.584Z,7.40
2022-08-03T18:08:45.171Z,11.50
2022-08-03T18:11:15.193Z,13.55
2022-08-03T18:13:53.344Z,14.45
2022-08-03T18:16:40.281Z,18.60
2022-08-03T18:19:09.287Z,8.88
2022-08-03T18:22:02.129Z,14.82
2022-08-03T18:24:28.348Z,10.77
2022-08-03T18:26:57.419Z,8.13
2022-08-03T18:29:24.562Z,12.70
2022-08-03T18:34:41.176Z,11.00
2022-08-03T18:37:25.275Z,9.68
2022-08-03T18:39:55.030Z,12.48
2022-08-03T18:42:26.452Z,8.60
2022-08-03T18:44:56.311Z,11.98
2022-08-03T18:47:23.249Z,9.40
2022-08-03T18:50:09.938Z,13.70
2022-08-03T18:52:52.892Z,10.77
2022-08-03T18:55:39.655Z,12.80
2022-08-03T18:58:35.427Z,8.20
2022-08-03T19:02:00.163Z,12.75
2022-08-03T19:04:32.618Z,18.67
2022-08-03T19:07:08.516Z,16.95
2022-08-03T19:09:47.239Z,12.40
2022-08-03T19:12:26.609Z,11.82
2022-08-03T19:15:01.351Z,14.82
2022-08-03T19:17:30.715Z,11.73
2022-08-03T19:19:58.016Z,13.63
2022-08-03T19:22:27.246Z,12.83
2022-08-03T19:24:55.203Z,12.88
2022-08-03T19:27:26.979Z,13.15
2022-08-03T19:30:00.117Z,14.20
2022-08-03T19:32:28.975Z,11.07
2022-08-03T19:34:56.747Z,19.17
2022-08-03T19:37:38.705Z,13.23
2022-08-03T19:40:10.905Z,13.50
2022-08-03T19:42:41.436Z,16.00
2022-08-03T19:45:11.212Z,16.40
2022-08-03T19:47:57.186Z,14.87
2022-08-03T19:50:26.548Z,17.63
2022-08-03T19:53:00.671Z,16.60
2022-08-03T19:55:32.212Z,14.82
2022-08-03T19:58:03.865Z,12.00
2022-08-03T20:00:30.741Z,13.60
2022-08-03T20:03:05.208Z,13.00
2022-08-03T20:05:51.853Z,15.57
2022-08-03T20:08:37.421Z,12.07
2022-08-03T20:11:11.104Z,15.73
2022-08-03T20:13:39.024Z,14.67
2022-08-03T20:16:08.441Z,12.27
2022-08-03T20:18:39.446Z,12.75
2022-08-03T20:21:15.335Z,12.10
2022-08-03T20:24:03.036Z,11.55
2022-08-03T20:26:31.051Z,12.27
2022-08-03T20:29:10.067Z,11.73
2022-08-03T20:31:37.507Z,8.45
2022-08-03T20:34:09.154Z,11.32
2022-08-03T20:36:35.690Z,10.05
2022-08-03T20:39:07.834Z,10.83
2022-08-03T20:41:36.922Z,13.70
2022-08-03T20:44:04.468Z,14.98
2022-08-03T20:46:44.105Z,14.52
2022-08-03T20:49:23.098Z,15.60
2022-08-03T20:51:53.302Z,14.30
2022-08-03T20:54:29.879Z,16.45
2022-08-03T20:57:00.550Z,13.65
2022-08-03T20:59:47.106Z,15.25
2022-08-03T21:02:19.912Z,11.65
2022-08-03T21:04:57.673Z,16.63
2022-08-03T21:07:24.296Z,16.02
2022-08-03T21:09:57.048Z,11.77
2022-08-03T21:13:05.638Z,8.07
2022-08-03T21:16:13.135Z,16.52
2022-08-03T21:18:47.534Z,11.83
2022-08-03T21:21:18.299Z,15.07
2022-08-03T21:23:48.146Z,11.23
2022-08-03T21:26:17.103Z,10.48
2022-08-03T21:28:50.735Z,14.40
2022-08-03T21:31:25.110Z,9.87
2022-08-03T21:34:04.598Z,10.52
2022-08-03T21:36:33.980Z,12.45
2022-08-03T21:39:01.436Z,10.15
2022-08-03T21:41:31.812Z,14.50
2022-08-03T21:43:59.192Z,16.07
2022-08-03T21:46:30.036Z,16.67
2022-08-03T21:50:06.895Z,13.48
2022-08-03T21:51:49.137Z,8.13
2022-08-03T21:54:18.104Z,14.27
2022-08-03T21:56:47.661Z,8.50
2022-08-03T21:59:19.262Z,15.25
2022-08-03T22:01:49.314Z,12.98
2022-08-03T22:04:50.223Z,10.85
2022-08-03T22:07:08.194Z,11.98
2022-08-03T22:09:51.081Z,9.57
2022-08-03T22:12:23.747Z,12.82
2022-08-03T22:15:01.355Z,8.57
2022-08-03T22:17:55.809Z,8.93
2022-08-03T22:20:19.882Z,8.48
2022-08-03T22:22:56.639Z,14.17
2022-08-03T22:25:31.869Z,10.27
2022-08-03T22:28:11.460Z,9.05
2022-08-03T22:30:41.015Z,9.65
2022-08-03T22:33:11.692Z,7.05
2022-08-03T22:35:47.837Z,9.07
2022-08-03T22:38:15.522Z,14.32
2022-08-03T22:40:42.145Z,7.22
2022-08-03T22:43:12.957Z,12.85
2022-08-03T22:46:06.982Z,9.27
2022-08-03T22:48:26.757Z,12.90
2022-08-03T22:50:53.296Z,10.88
2022-08-03T22:53:23.473Z,8.77
2022-08-03T22:55:54.179Z,11.57
2022-08-03T22:58:24.607Z,9.75
2022-08-03T23:00:56.826Z,12.70
2022-08-03T23:03:59.853Z,8.80
2022-08-03T23:06:14.449Z,7.13
2022-08-03T23:08:42.451Z,9.13
2022-08-03T23:11:09.216Z,6.93
2022-08-03T23:13:36.166Z,9.17
2022-08-03T23:16:06.437Z,9.77
2022-08-03T23:18:37.909Z,6.75
2022-08-03T23:21:10.898Z,14.45
2022-08-03T23:23:44.654Z,8.20
2022-08-03T23:26:11.672Z,8.43
2022-08-03T23:28:38.463Z,8.45
2022-08-03T23:31:08.100Z,7.60
2022-08-03T23:33:37.358Z,9.43
2022-08-03T23:36:29.551Z,7.38
2022-08-03T23:38:53.622Z,9.00
2022-08-03T23:41:20.345Z,9.13
2022-08-03T23:43:51.687Z,7.20
2022-08-03T23:46:22.988Z,8.35
2022-08-03T23:48:50.100Z,8.38
2022-08-03T23:51:50.620Z,7.43
2022-08-03T23:54:40.590Z,10.63
2022-08-03T23:57:20.462Z,6.50
2022-08-03T23:59:50.134Z,9.18
